sensor_id;sensor_type;location;lat;lon;timestamp;pressure;altitude;pressure_sealevel;temperature;humidity
4705;BME280;2366;51.332;6.610;2022-08-01T00:01:37;101468.34;;;23.26;77.56
4705;BME280;2366;51.332;6.610;2022-08-01T00:04:03;101466.19;;;23.29;77.59
4705;BME280;2366;51.332;6.610;2022-08-01T00:06:29;101464.31;;;23.30;77.29
4705;BME280;2366;51.332;6.610;2022-08-01T00:08:54;101471.88;;;23.26;77.21
4705;BME280;2366;51.332;6.610;2022-08-01T00:11:20;101461.06;;;23.26;77.16
4705;BME280;2366;51.332;6.610;2022-08-01T00:13:45;101465.00;;;23.32;77.17
4705;BME280;2366;51.332;6.610;2022-08-01T00:16:10;101461.47;;;23.31;77.23
4705;BME280;2366;51.332;6.610;2022-08-01T00:18:36;101466.00;;;23.31;77.19
4705;BME280;2366;51.332;6.610;2022-08-01T00:21:03;101459.69;;;23.22;77.13
4705;BME280;2366;51.332;6.610;2022-08-01T00:23:28;101471.13;;;23.16;77.23
4705;BME280;2366;51.332;6.610;2022-08-01T00:25:53;101468.97;;;23.20;77.29
4705;BME280;2366;51.332;6.610;2022-08-01T00:28:20;101468.97;;;23.20;77.39
4705;BME280;2366;51.332;6.610;2022-08-01T00:30:45;101470.75;;;23.11;77.54
4705;BME280;2366;51.332;6.610;2022-08-01T00:33:10;101471.09;;;23.08;77.41
4705;BME280;2366;51.332;6.610;2022-08-01T00:35:36;101476.19;;;23.11;77.34
4705;BME280;2366;51.332;6.610;2022-08-01T00:38:01;101467.06;;;23.12;77.42
4705;BME280;2366;51.332;6.610;2022-08-01T00:40:26;101471.31;;;23.14;77.41
4705;BME280;2366;51.332;6.610;2022-08-01T00:42:52;101470.06;;;23.09;77.36
4705;BME280;2366;51.332;6.610;2022-08-01T00:45:17;101468.69;;;23.05;77.47
4705;BME280;2366;51.332;6.610;2022-08-01T00:47:42;101468.38;;;23.08;77.71
4705;BME280;2366;51.332;6.610;2022-08-01T00:50:08;101460.50;;;23.14;77.62
4705;BME280;2366;51.332;6.610;2022-08-01T00:52:34;101457.47;;;23.17;77.66
4705;BME280;2366;51.332;6.610;2022-08-01T00:55:00;101458.31;;;23.18;77.37
4705;BME280;2366;51.332;6.610;2022-08-01T00:57:26;101453.06;;;23.16;77.02
4705;BME280;2366;51.332;6.610;2022-08-01T00:59:52;101465.78;;;23.24;76.97
4705;BME280;2366;51.332;6.610;2022-08-01T01:02:17;101461.19;;;23.16;76.93
4705;BME280;2366;51.332;6.610;2022-08-01T01:04:43;101459.88;;;23.21;76.47
4705;BME280;2366;51.332;6.610;2022-08-01T01:10:13;101460.31;;;23.16;76.45
4705;BME280;2366;51.332;6.610;2022-08-01T01:12:49;101452.53;;;23.13;76.62
4705;BME280;2366;51.332;6.610;2022-08-01T01:15:50;101455.88;;;23.07;76.71
4705;BME280;2366;51.332;6.610;2022-08-01T01:23:50;101450.84;;;23.12;76.55
4705;BME280;2366;51.332;6.610;2022-08-01T01:29:03;101452.94;;;23.00;76.42
4705;BME280;2366;51.332;6.610;2022-08-01T01:34:16;101461.16;;;22.98;76.69
4705;BME280;2366;51.332;6.610;2022-08-01T01:36:43;101453.78;;;23.01;76.63
4705;BME280;2366;51.332;6.610;2022-08-01T01:39:10;101458.47;;;22.98;76.92
4705;BME280;2366;51.332;6.610;2022-08-01T01:41:37;101461.66;;;22.94;77.14
4705;BME280;2366;51.332;6.610;2022-08-01T01:44:04;101465.84;;;22.88;76.90
4705;BME280;2366;51.332;6.610;2022-08-01T01:46:31;101469.53;;;22.87;77.08
4705;BME280;2366;51.332;6.610;2022-08-01T01:48:57;101468.22;;;22.91;76.96
4705;BME280;2366;51.332;6.610;2022-08-01T01:51:25;101474.09;;;22.87;77.10
4705;BME280;2366;51.332;6.610;2022-08-01T01:53:53;101468.38;;;22.90;76.88
4705;BME280;2366;51.332;6.610;2022-08-01T01:56:20;101461.81;;;22.92;76.77
4705;BME280;2366;51.332;6.610;2022-08-01T01:58:53;101464.53;;;22.92;76.52
4705;BME280;2366;51.332;6.610;2022-08-01T02:01:21;101458.44;;;22.90;76.68
4705;BME280;2366;51.332;6.610;2022-08-01T02:03:49;101461.28;;;22.89;76.39
4705;BME280;2366;51.332;6.610;2022-08-01T02:06:16;101465.16;;;22.86;76.79
4705;BME280;2366;51.332;6.610;2022-08-01T02:08:43;101464.81;;;22.89;76.62
4705;BME280;2366;51.332;6.610;2022-08-01T02:11:09;101467.53;;;22.89;76.85
4705;BME280;2366;51.332;6.610;2022-08-01T02:13:47;101460.44;;;22.88;76.76
4705;BME280;2366;51.332;6.610;2022-08-01T02:16:13;101460.13;;;22.91;76.70
4705;BME280;2366;51.332;6.610;2022-08-01T02:18:41;101458.09;;;22.93;76.68
4705;BME280;2366;51.332;6.610;2022-08-01T02:21:09;101457.78;;;22.96;76.88
4705;BME280;2366;51.332;6.610;2022-08-01T02:23:38;101452.53;;;22.95;76.84
4705;BME280;2366;51.332;6.610;2022-08-01T02:26:09;101448.47;;;22.91;76.59
4705;BME280;2366;51.332;6.610;2022-08-01T02:28:56;101439.50;;;22.90;76.65
4705;BME280;2366;51.332;6.610;2022-08-01T02:31:24;101443.19;;;22.89;76.69
4705;BME280;2366;51.332;6.610;2022-08-01T02:33:58;101453.31;;;22.87;76.69
4705;BME280;2366;51.332;6.610;2022-08-01T02:36:28;101447.41;;;22.84;76.74
4705;BME280;2366;51.332;6.610;2022-08-01T02:38:56;101451.78;;;22.85;77.11
4705;BME280;2366;51.332;6.610;2022-08-01T02:41:26;101451.94;;;22.83;76.69
4705;BME280;2366;51.332;6.610;2022-08-01T02:43:55;101456.97;;;22.78;77.36
4705;BME280;2366;51.332;6.610;2022-08-01T02:46:30;101456.59;;;22.73;77.40
4705;BME280;2366;51.332;6.610;2022-08-01T02:49:00;101463.41;;;22.77;77.64
4705;BME280;2366;51.332;6.610;2022-08-01T02:51:29;101454.63;;;22.83;77.23
4705;BME280;2366;51.332;6.610;2022-08-01T02:53:56;101455.72;;;22.90;77.29
4705;BME280;2366;51.332;6.610;2022-08-01T02:56:24;101458.09;;;22.93;77.19
4705;BME280;2366;51.332;6.610;2022-08-01T02:59:01;101450.78;;;22.86;77.03
4705;BME280;2366;51.332;6.610;2022-08-01T03:01:27;101449.63;;;22.88;77.16
4705;BME280;2366;51.332;6.610;2022-08-01T03:03:53;101445.91;;;22.89;76.81
4705;BME280;2366;51.332;6.610;2022-08-01T03:06:19;101455.53;;;22.92;77.04
4705;BME280;2366;51.332;6.610;2022-08-01T03:08:46;101458.09;;;22.93;77.15
4705;BME280;2366;51.332;6.610;2022-08-01T03:11:13;101453.16;;;22.89;76.91
4705;BME280;2366;51.332;6.610;2022-08-01T03:13:41;101459.63;;;22.96;76.97
4705;BME280;2366;51.332;6.610;2022-08-01T03:16:08;101452.94;;;23.00;76.74
4705;BME280;2366;51.332;6.610;2022-08-01T03:18:35;101463.47;;;23.03;76.85
4705;BME280;2366;51.332;6.610;2022-08-01T03:21:01;101462.88;;;23.00;76.63
4705;BME280;2366;51.332;6.610;2022-08-01T03:23:29;101455.94;;;22.97;76.95
4705;BME280;2366;51.332;6.610;2022-08-01T03:25:57;101465.75;;;22.98;76.80
4705;BME280;2366;51.332;6.610;2022-08-01T03:28:23;101461.91;;;23.01;76.75
4705;BME280;2366;51.332;6.610;2022-08-01T03:30:50;101470.31;;;22.97;76.57
4705;BME280;2366;51.332;6.610;2022-08-01T03:33:16;101471.28;;;22.96;76.66
4705;BME280;2366;51.332;6.610;2022-08-01T03:35:47;101462.66;;;22.93;77.00
4705;BME280;2366;51.332;6.610;2022-08-01T03:38:18;101465.50;;;22.91;76.91
4705;BME280;2366;51.332;6.610;2022-08-01T03:40:47;101462.97;;;22.90;76.66
4705;BME280;2366;51.332;6.610;2022-08-01T03:43:19;101463.63;;;22.84;77.21
4705;BME280;2366;51.332;6.610;2022-08-01T03:45:49;101466.63;;;22.81;77.43
4705;BME280;2366;51.332;6.610;2022-08-01T03:48:18;101464.59;;;22.83;77.24
4705;BME280;2366;51.332;6.610;2022-08-01T03:50:50;101472.72;;;22.83;77.51
4705;BME280;2366;51.332;6.610;2022-08-01T03:53:20;101468.16;;;22.83;77.70
4705;BME280;2366;51.332;6.610;2022-08-01T03:55:47;101471.53;;;22.85;77.99
4705;BME280;2366;51.332;6.610;2022-08-01T03:58:14;101469.53;;;22.87;77.81
4705;BME280;2366;51.332;6.610;2022-08-01T04:00:40;101472.94;;;22.89;77.81
4705;BME280;2366;51.332;6.610;2022-08-01T04:03:07;101461.28;;;22.89;77.75
4705;BME280;2366;51.332;6.610;2022-08-01T04:05:33;101473.78;;;22.90;77.82
4705;BME280;2366;51.332;6.610;2022-08-01T04:07:59;101480.06;;;22.90;77.75
4705;BME280;2366;51.332;6.610;2022-08-01T04:10:28;101472.63;;;22.92;77.86
4705;BME280;2366;51.332;6.610;2022-08-01T04:12:53;101481.75;;;22.91;77.90
4705;BME280;2366;51.332;6.610;2022-08-01T04:15:19;101472.94;;;22.89;77.96
4705;BME280;2366;51.332;6.610;2022-08-01T04:17:45;101482.91;;;22.89;77.90
4705;BME280;2366;51.332;6.610;2022-08-01T04:20:11;101474.31;;;22.93;78.04
4705;BME280;2366;51.332;6.610;2022-08-01T04:22:37;101481.44;;;22.94;77.86
4705;BME280;2366;51.332;6.610;2022-08-01T04:25:06;101478.88;;;22.93;77.90
4705;BME280;2366;51.332;6.610;2022-08-01T04:27:38;101484.06;;;22.86;77.84
4705;BME280;2366;51.332;6.610;2022-08-01T04:30:05;101495.25;;;22.91;77.92
4705;BME280;2366;51.332;6.610;2022-08-01T04:32:35;101486.59;;;22.88;77.64
4705;BME280;2366;51.332;6.610;2022-08-01T04:35:05;101487.63;;;22.87;77.91
4705;BME280;2366;51.332;6.610;2022-08-01T04:37:32;101491.56;;;22.92;77.75
4705;BME280;2366;51.332;6.610;2022-08-01T04:39:59;101490.69;;;22.92;77.81
4705;BME280;2366;51.332;6.610;2022-08-01T04:42:25;101499.34;;;22.95;77.61
4705;BME280;2366;51.332;6.610;2022-08-01T04:44:51;101496.78;;;22.94;77.23
4705;BME280;2366;51.332;6.610;2022-08-01T04:47:16;101502.66;;;22.89;77.31
4705;BME280;2366;51.332;6.610;2022-08-01T04:49:43;101501.97;;;22.87;77.37
4705;BME280;2366;51.332;6.610;2022-08-01T04:52:11;101507.38;;;22.87;77.44
4705;BME280;2366;51.332;6.610;2022-08-01T04:54:36;101511.78;;;22.88;77.10
4705;BME280;2366;51.332;6.610;2022-08-01T04:57:03;101519.03;;;22.88;77.09
4705;BME280;2366;51.332;6.610;2022-08-01T04:59:30;101518.50;;;22.84;76.96
4705;BME280;2366;51.332;6.610;2022-08-01T05:02:09;101517.28;;;22.79;76.89
4705;BME280;2366;51.332;6.610;2022-08-01T05:04:35;101526.22;;;22.79;77.17
4705;BME280;2366;51.332;6.610;2022-08-01T05:07:01;101513.72;;;22.78;77.26
4705;BME280;2366;51.332;6.610;2022-08-01T05:09:27;101522.19;;;22.83;77.22
4705;BME280;2366;51.332;6.610;2022-08-01T05:11:52;101527.09;;;22.80;77.16
4705;BME280;2366;51.332;6.610;2022-08-01T05:14:18;101521.50;;;22.81;76.96
4705;BME280;2366;51.332;6.610;2022-08-01T05:16:44;101527.22;;;22.96;76.93
4705;BME280;2366;51.332;6.610;2022-08-01T05:19:11;101527.00;;;23.07;76.84
4705;BME280;2366;51.332;6.610;2022-08-01T05:21:36;101529.41;;;23.10;76.75
4705;BME280;2366;51.332;6.610;2022-08-01T05:24:03;101537.91;;;23.15;76.06
4705;BME280;2366;51.332;6.610;2022-08-01T05:26:29;101531.09;;;23.11;75.72
4705;BME280;2366;51.332;6.610;2022-08-01T05:28:54;101529.88;;;23.06;76.32
4705;BME280;2366;51.332;6.610;2022-08-01T05:31:19;101532.47;;;23.15;76.03
4705;BME280;2366;51.332;6.610;2022-08-01T05:33:45;101539.91;;;23.13;76.05
4705;BME280;2366;51.332;6.610;2022-08-01T05:36:10;101540.94;;;23.12;75.78
4705;BME280;2366;51.332;6.610;2022-08-01T05:38:35;101533.97;;;23.10;74.90
4705;BME280;2366;51.332;6.610;2022-08-01T05:41:01;101535.81;;;22.91;75.36
4705;BME280;2366;51.332;6.610;2022-08-01T05:43:26;101534.63;;;22.94;75.71
4705;BME280;2366;51.332;6.610;2022-08-01T05:45:51;101547.69;;;22.81;75.63
4705;BME280;2366;51.332;6.610;2022-08-01T05:48:17;101551.03;;;22.92;76.31
4705;BME280;2366;51.332;6.610;2022-08-01T05:50:42;101540.00;;;23.04;75.43
4705;BME280;2366;51.332;6.610;2022-08-01T05:53:08;101546.41;;;23.03;74.91
4705;BME280;2366;51.332;6.610;2022-08-01T05:55:34;101550.56;;;23.85;74.38
4705;BME280;2366;51.332;6.610;2022-08-01T05:58:00;101551.56;;;24.18;72.39
4705;BME280;2366;51.332;6.610;2022-08-01T06:00:25;101552.69;;;23.99;71.27
4705;BME280;2366;51.332;6.610;2022-08-01T06:02:51;101552.69;;;23.73;70.56
4705;BME280;2366;51.332;6.610;2022-08-01T06:05:16;101546.56;;;23.45;69.81
4705;BME280;2366;51.332;6.610;2022-08-01T06:07:41;101554.13;;;23.33;71.06
4705;BME280;2366;51.332;6.610;2022-08-01T06:10:07;101558.50;;;23.34;71.46
4705;BME280;2366;51.332;6.610;2022-08-01T06:12:33;101558.19;;;23.37;71.60
4705;BME280;2366;51.332;6.610;2022-08-01T06:14:59;101548.94;;;23.48;72.04
4705;BME280;2366;51.332;6.610;2022-08-01T06:17:24;101546.22;;;23.66;71.71
4705;BME280;2366;51.332;6.610;2022-08-01T06:19:50;101550.34;;;23.78;71.54
4705;BME280;2366;51.332;6.610;2022-08-01T06:22:15;101550.25;;;23.88;70.91
4705;BME280;2366;51.332;6.610;2022-08-01T06:24:41;101541.84;;;23.73;69.29
4705;BME280;2366;51.332;6.610;2022-08-01T06:27:06;101541.94;;;23.64;69.86
4705;BME280;2366;51.332;6.610;2022-08-01T06:29:31;101549.91;;;23.65;70.20
4705;BME280;2366;51.332;6.610;2022-08-01T06:31:57;101545.13;;;23.77;70.01
4705;BME280;2366;51.332;6.610;2022-08-01T06:34:23;101544.34;;;23.93;69.68
4705;BME280;2366;51.332;6.610;2022-08-01T06:36:48;101551.56;;;24.18;69.50
4705;BME280;2366;51.332;6.610;2022-08-01T06:39:14;101538.09;;;24.43;68.67
4705;BME280;2366;51.332;6.610;2022-08-01T06:41:39;101545.84;;;25.13;67.83
4705;BME280;2366;51.332;6.610;2022-08-01T06:44:07;101541.53;;;25.93;62.62
4705;BME280;2366;51.332;6.610;2022-08-01T06:46:32;101549.03;;;26.53;61.93
4705;BME280;2366;51.332;6.610;2022-08-01T06:48:57;101549.78;;;29.01;55.62
4705;BME280;2366;51.332;6.610;2022-08-01T06:51:23;101550.25;;;30.99;48.51
4705;BME280;2366;51.332;6.610;2022-08-01T06:53:48;101547.78;;;32.09;45.94
4705;BME280;2366;51.332;6.610;2022-08-01T06:56:14;101544.69;;;33.14;42.97
4705;BME280;2366;51.332;6.610;2022-08-01T06:58:39;101539.69;;;33.30;41.90
4705;BME280;2366;51.332;6.610;2022-08-01T07:01:05;101545.09;;;33.11;41.97
4705;BME280;2366;51.332;6.610;2022-08-01T07:03:32;101540.03;;;33.59;40.16
4705;BME280;2366;51.332;6.610;2022-08-01T07:05:57;101540.50;;;33.55;41.04
4705;BME280;2366;51.332;6.610;2022-08-01T07:08:23;101528.28;;;34.25;39.00
4705;BME280;2366;51.332;6.610;2022-08-01T07:10:48;101538.56;;;34.18;39.28
4705;BME280;2366;51.332;6.610;2022-08-01T07:13:13;101536.31;;;34.27;39.10
4705;BME280;2366;51.332;6.610;2022-08-01T07:15:42;101532.88;;;35.15;36.60
4705;BME280;2366;51.332;6.610;2022-08-01T07:18:08;101541.47;;;35.07;37.45
4705;BME280;2366;51.332;6.610;2022-08-01T07:20:33;101534.75;;;34.31;37.38
4705;BME280;2366;51.332;6.610;2022-08-01T07:22:59;101535.03;;;32.73;40.69
4705;BME280;2366;51.332;6.610;2022-08-01T07:25:24;101532.13;;;31.25;42.34
4705;BME280;2366;51.332;6.610;2022-08-01T07:27:49;101532.63;;;30.34;45.04
4705;BME280;2366;51.332;6.610;2022-08-01T07:30:15;101532.00;;;29.97;46.01
4705;BME280;2366;51.332;6.610;2022-08-01T07:32:40;101529.41;;;31.38;45.42
4705;BME280;2366;51.332;6.610;2022-08-01T07:35:06;101536.63;;;33.63;39.47
4705;BME280;2366;51.332;6.610;2022-08-01T07:37:31;101537.09;;;35.18;36.73
4705;BME280;2366;51.332;6.610;2022-08-01T07:39:56;101538.63;;;35.49;35.58
4705;BME280;2366;51.332;6.610;2022-08-01T07:42:22;101542.31;;;35.08;36.22
4705;BME280;2366;51.332;6.610;2022-08-01T07:44:47;101541.75;;;33.60;38.36
4705;BME280;2366;51.332;6.610;2022-08-01T07:47:13;101529.59;;;32.67;39.83
4705;BME280;2366;51.332;6.610;2022-08-01T07:49:38;101550.25;;;33.01;40.37
4705;BME280;2366;51.332;6.610;2022-08-01T07:52:04;101543.31;;;33.24;38.74
4705;BME280;2366;51.332;6.610;2022-08-01T07:54:31;101549.03;;;33.47;38.89
4705;BME280;2366;51.332;6.610;2022-08-01T07:56:57;101544.09;;;34.90;36.76
4705;BME280;2366;51.332;6.610;2022-08-01T07:59:22;101542.22;;;35.14;35.89
4705;BME280;2366;51.332;6.610;2022-08-01T08:01:49;101535.47;;;35.10;36.42
4705;BME280;2366;51.332;6.610;2022-08-01T08:04:16;101539.69;;;33.30;38.88
4705;BME280;2366;51.332;6.610;2022-08-01T08:06:41;101550.34;;;33.63;38.75
4705;BME280;2366;51.332;6.610;2022-08-01T08:09:07;101547.25;;;33.34;39.25
4705;BME280;2366;51.332;6.610;2022-08-01T08:11:33;101541.41;;;32.99;39.52
4705;BME280;2366;51.332;6.610;2022-08-01T08:13:58;101544.41;;;33.23;38.78
4705;BME280;2366;51.332;6.610;2022-08-01T08:16:23;101541.31;;;32.04;40.55
4705;BME280;2366;51.332;6.610;2022-08-01T08:18:49;101537.16;;;30.88;42.11
4705;BME280;2366;51.332;6.610;2022-08-01T08:21:14;101554.81;;;30.17;45.51
4705;BME280;2366;51.332;6.610;2022-08-01T08:23:39;101548.53;;;30.17;44.43
4705;BME280;2366;51.332;6.610;2022-08-01T08:26:23;101556.50;;;29.48;46.33
4705;BME280;2366;51.332;6.610;2022-08-01T08:28:50;101553.81;;;28.84;45.90
4705;BME280;2366;51.332;6.610;2022-08-01T08:31:15;101555.63;;;28.98;48.38
4705;BME280;2366;51.332;6.610;2022-08-01T08:33:40;101551.41;;;29.39;46.24
4705;BME280;2366;51.332;6.610;2022-08-01T08:36:06;101557.31;;;30.12;45.32
4705;BME280;2366;51.332;6.610;2022-08-01T08:38:31;101560.13;;;31.27;43.94
4705;BME280;2366;51.332;6.610;2022-08-01T08:40:57;101557.97;;;32.54;41.35
4705;BME280;2366;51.332;6.610;2022-08-01T08:43:24;101562.78;;;32.90;39.63
4705;BME280;2366;51.332;6.610;2022-08-01T08:45:50;101560.66;;;32.09;41.17
4705;BME280;2366;51.332;6.610;2022-08-01T08:48:16;101551.72;;;31.15;41.74
4705;BME280;2366;51.332;6.610;2022-08-01T08:50:43;101560.31;;;29.04;45.66
4705;BME280;2366;51.332;6.610;2022-08-01T08:53:10;101557.31;;;28.56;46.92
4705;BME280;2366;51.332;6.610;2022-08-01T08:55:38;101554.47;;;28.86;47.84
4705;BME280;2366;51.332;6.610;2022-08-01T08:58:04;101565.97;;;29.53;46.70
4705;BME280;2366;51.332;6.610;2022-08-01T09:00:32;101560.91;;;30.67;44.92
4705;BME280;2366;51.332;6.610;2022-08-01T09:02:57;101570.06;;;31.08;43.47
4705;BME280;2366;51.332;6.610;2022-08-01T09:05:23;101566.53;;;30.53;44.46
4705;BME280;2366;51.332;6.610;2022-08-01T09:07:52;101572.63;;;30.41;44.89
4705;BME280;2366;51.332;6.610;2022-08-01T09:10:18;101571.94;;;31.41;40.86
4705;BME280;2366;51.332;6.610;2022-08-01T09:15:38;101563.63;;;32.91;39.63
4705;BME280;2366;51.332;6.610;2022-08-01T09:18:04;101579.19;;;33.29;38.50
4705;BME280;2366;51.332;6.610;2022-08-01T09:20:30;101581.84;;;33.42;37.69
4705;BME280;2366;51.332;6.610;2022-08-01T09:22:55;101580.44;;;32.24;40.15
4705;BME280;2366;51.332;6.610;2022-08-01T09:25:21;101586.69;;;31.73;40.40
4705;BME280;2366;51.332;6.610;2022-08-01T09:27:46;101590.19;;;30.80;41.78
4705;BME280;2366;51.332;6.610;2022-08-01T09:30:13;101587.34;;;29.71;43.28
4705;BME280;2366;51.332;6.610;2022-08-01T09:33:00;101579.13;;;29.42;44.65
4705;BME280;2366;51.332;6.610;2022-08-01T09:35:28;101587.25;;;30.27;41.35
4705;BME280;2366;51.332;6.610;2022-08-01T09:38:21;101586.69;;;31.20;41.24
4705;BME280;2366;51.332;6.610;2022-08-01T09:41:07;101585.72;;;32.19;39.42
4705;BME280;2366;51.332;6.610;2022-08-01T09:43:33;101589.38;;;32.51;39.34
4705;BME280;2366;51.332;6.610;2022-08-01T09:46:02;101594.63;;;32.66;37.77
4705;BME280;2366;51.332;6.610;2022-08-01T09:48:29;101590.22;;;31.93;39.30
4705;BME280;2366;51.332;6.610;2022-08-01T09:50:55;101587.31;;;31.15;41.69
4705;BME280;2366;51.332;6.610;2022-08-01T09:53:21;101586.69;;;31.60;39.86
4705;BME280;2366;51.332;6.610;2022-08-01T09:55:46;101583.31;;;31.78;38.89
4705;BME280;2366;51.332;6.610;2022-08-01T09:58:12;101581.97;;;32.07;39.32
4705;BME280;2366;51.332;6.610;2022-08-01T10:00:39;101582.81;;;32.14;38.41
4705;BME280;2366;51.332;6.610;2022-08-01T10:03:20;101579.94;;;31.29;38.38
4705;BME280;2366;51.332;6.610;2022-08-01T10:05:46;101583.31;;;31.18;39.75
4705;BME280;2366;51.332;6.610;2022-08-01T10:08:13;101571.72;;;31.29;40.65
4705;BME280;2366;51.332;6.610;2022-08-01T10:10:38;101581.22;;;31.53;38.42
4705;BME280;2366;51.332;6.610;2022-08-01T10:13:04;101584.06;;;32.11;37.30
4705;BME280;2366;51.332;6.610;2022-08-01T10:15:30;101582.06;;;32.84;36.71
4705;BME280;2366;51.332;6.610;2022-08-01T10:17:58;101571.25;;;33.21;36.06
4705;BME280;2366;51.332;6.610;2022-08-01T10:20:26;101574.88;;;33.14;35.85
4705;BME280;2366;51.332;6.610;2022-08-01T10:22:59;101571.06;;;32.84;36.59
4705;BME280;2366;51.332;6.610;2022-08-01T10:25:27;101574.66;;;32.84;36.83
4705;BME280;2366;51.332;6.610;2022-08-01T10:27:53;101567.09;;;32.34;35.46
4705;BME280;2366;51.332;6.610;2022-08-01T10:30:22;101565.19;;;31.03;36.80
4705;BME280;2366;51.332;6.610;2022-08-01T10:32:51;101566.53;;;30.46;39.16
4705;BME280;2366;51.332;6.610;2022-08-01T10:35:18;101564.72;;;30.73;39.41
4705;BME280;2366;51.332;6.610;2022-08-01T10:37:45;101580.38;;;31.52;37.75
4705;BME280;2366;51.332;6.610;2022-08-01T10:40:14;101575.53;;;30.33;38.48
4705;BME280;2366;51.332;6.610;2022-08-01T10:42:41;101579.72;;;30.97;38.39
4705;BME280;2366;51.332;6.610;2022-08-01T10:45:09;101571.31;;;31.19;37.60
4705;BME280;2366;51.332;6.610;2022-08-01T10:47:42;101578.13;;;30.06;37.18
4705;BME280;2366;51.332;6.610;2022-08-01T10:50:19;101571.66;;;30.27;39.12
4705;BME280;2366;51.332;6.610;2022-08-01T10:53:11;101567.19;;;30.06;37.62
4705;BME280;2366;51.332;6.610;2022-08-01T10:58:34;101563.06;;;30.92;37.96
4705;BME280;2366;51.332;6.610;2022-08-01T11:01:30;101560.78;;;31.29;37.00
4705;BME280;2366;51.332;6.610;2022-08-01T11:04:12;101562.50;;;31.43;35.99
4705;BME280;2366;51.332;6.610;2022-08-01T11:07:05;101554.66;;;31.40;34.87
4705;BME280;2366;51.332;6.610;2022-08-01T11:09:40;101558.03;;;31.22;36.32
4705;BME280;2366;51.332;6.610;2022-08-01T11:12:11;101566.06;;;31.10;36.87
4705;BME280;2366;51.332;6.610;2022-08-01T11:17:33;101564.44;;;30.06;39.82
4705;BME280;2366;51.332;6.610;2022-08-01T11:20:09;101568.47;;;29.47;41.65
4705;BME280;2366;51.332;6.610;2022-08-01T11:25:22;101561.56;;;29.52;43.23
4705;BME280;2366;51.332;6.610;2022-08-01T11:27:48;101562.19;;;29.54;43.59
4705;BME280;2366;51.332;6.610;2022-08-01T11:32:50;101564.41;;;29.37;43.13
4705;BME280;2366;51.332;6.610;2022-08-01T11:35:16;101556.72;;;29.54;43.12
4705;BME280;2366;51.332;6.610;2022-08-01T11:37:42;101559.47;;;29.54;42.50
4705;BME280;2366;51.332;6.610;2022-08-01T11:40:21;101554.22;;;29.24;43.04
4705;BME280;2366;51.332;6.610;2022-08-01T11:43:29;101556.31;;;29.22;43.22
4705;BME280;2366;51.332;6.610;2022-08-01T11:45:52;101556.47;;;28.99;43.57
4705;BME280;2366;51.332;6.610;2022-08-01T11:48:21;101557.31;;;28.56;44.83
4705;BME280;2366;51.332;6.610;2022-08-01T11:50:50;101556.31;;;29.22;44.07
4705;BME280;2366;51.332;6.610;2022-08-01T11:53:16;101564.09;;;29.53;43.38
4705;BME280;2366;51.332;6.610;2022-08-01T11:55:49;101561.09;;;30.11;42.51
4705;BME280;2366;51.332;6.610;2022-08-01T11:58:19;101566.91;;;29.95;42.40
4705;BME280;2366;51.332;6.610;2022-08-01T12:00:52;101566.03;;;29.31;42.53
4705;BME280;2366;51.332;6.610;2022-08-01T12:03:27;101569.34;;;29.05;43.63
4705;BME280;2366;51.332;6.610;2022-08-01T12:05:54;101564.47;;;29.72;43.20
4705;BME280;2366;51.332;6.610;2022-08-01T12:08:27;101581.44;;;30.37;41.28
4705;BME280;2366;51.332;6.610;2022-08-01T12:10:53;101579.19;;;30.12;41.99
4705;BME280;2366;51.332;6.610;2022-08-01T12:13:19;101575.66;;;29.83;42.30
4705;BME280;2366;51.332;6.610;2022-08-01T12:15:45;101573.19;;;29.60;42.01
4705;BME280;2366;51.332;6.610;2022-08-01T12:18:11;101567.22;;;29.22;43.36
4705;BME280;2366;51.332;6.610;2022-08-01T12:20:43;101575.13;;;28.95;43.59
4705;BME280;2366;51.332;6.610;2022-08-01T12:23:11;101570.09;;;28.56;44.10
4705;BME280;2366;51.332;6.610;2022-08-01T12:25:37;101565.00;;;28.67;44.67
4705;BME280;2366;51.332;6.610;2022-08-01T12:28:06;101565.88;;;29.11;43.29
4705;BME280;2366;51.332;6.610;2022-08-01T12:30:33;101561.94;;;29.20;42.21
4705;BME280;2366;51.332;6.610;2022-08-01T12:33:01;101559.47;;;29.54;42.38
4705;BME280;2366;51.332;6.610;2022-08-01T12:35:29;101555.94;;;29.60;41.16
4705;BME280;2366;51.332;6.610;2022-08-01T12:38:02;101558.44;;;29.55;41.41
4705;BME280;2366;51.332;6.610;2022-08-01T12:40:31;101557.88;;;29.10;42.12
4705;BME280;2366;51.332;6.610;2022-08-01T12:43:01;101567.50;;;29.62;42.08
4705;BME280;2366;51.332;6.610;2022-08-01T12:45:31;101567.47;;;30.25;40.31
4705;BME280;2366;51.332;6.610;2022-08-01T12:47:58;101567.94;;;30.28;40.51
4705;BME280;2366;51.332;6.610;2022-08-01T12:50:29;101569.16;;;29.56;41.27
4705;BME280;2366;51.332;6.610;2022-08-01T12:52:55;101577.13;;;29.29;42.91
4705;BME280;2366;51.332;6.610;2022-08-01T12:55:23;101567.25;;;29.07;43.38
4705;BME280;2366;51.332;6.610;2022-08-01T12:58:08;101573.97;;;29.26;42.23
4705;BME280;2366;51.332;6.610;2022-08-01T13:00:34;101579.13;;;28.99;43.07
4705;BME280;2366;51.332;6.610;2022-08-01T13:03:06;101564.84;;;28.97;43.66
4705;BME280;2366;51.332;6.610;2022-08-01T13:05:51;101569.53;;;29.25;43.00
4705;BME280;2366;51.332;6.610;2022-08-01T13:08:19;101565.53;;;29.49;41.64
4705;BME280;2366;51.332;6.610;2022-08-01T13:10:45;101571.50;;;29.87;40.94
4705;BME280;2366;51.332;6.610;2022-08-01T13:13:12;101573.75;;;29.56;41.47
4705;BME280;2366;51.332;6.610;2022-08-01T13:15:40;101567.38;;;29.42;42.18
4705;BME280;2366;51.332;6.610;2022-08-01T13:18:29;101570.88;;;29.36;41.69
4705;BME280;2366;51.332;6.610;2022-08-01T13:21:15;101571.56;;;29.16;42.45
4705;BME280;2366;51.332;6.610;2022-08-01T13:24:12;101576.41;;;28.56;43.36
4705;BME280;2366;51.332;6.610;2022-08-01T13:26:49;101572.38;;;28.52;43.44
4705;BME280;2366;51.332;6.610;2022-08-01T13:29:17;101573.78;;;28.48;43.99
4705;BME280;2366;51.332;6.610;2022-08-01T13:31:43;101575.09;;;28.52;44.46
4705;BME280;2366;51.332;6.610;2022-08-01T13:34:09;101571.91;;;28.49;45.24
4705;BME280;2366;51.332;6.610;2022-08-01T13:36:35;101562.19;;;28.46;45.36
4705;BME280;2366;51.332;6.610;2022-08-01T13:39:04;101576.91;;;28.15;45.20
4705;BME280;2366;51.332;6.610;2022-08-01T13:41:48;101575.03;;;28.01;45.11
4705;BME280;2366;51.332;6.610;2022-08-01T13:44:15;101576.25;;;27.98;45.26